createdAt,value
2024-04-22T00:01:36.826Z,14.20
2024-04-22T00:04:07.070Z,13.63
2024-04-22T00:06:34.904Z,15.77
2024-04-22T00:09:03.807Z,14.73
2024-04-22T00:11:31.573Z,14.20
2024-04-22T00:13:59.312Z,13.80
2024-04-22T00:16:26.895Z,15.73
2024-04-22T00:18:54.909Z,14.23
2024-04-22T00:21:22.508Z,15.90
2024-04-22T00:23:50.105Z,13.93
2024-04-22T00:26:17.736Z,12.60
2024-04-22T00:28:45.599Z,11.60
2024-04-22T00:31:13.291Z,12.97
2024-04-22T00:33:40.908Z,13.70
2024-04-22T00:36:08.655Z,14.37
2024-04-22T00:38:36.688Z,13.00
2024-04-22T00:41:04.373Z,13.93
2024-04-22T00:43:32.032Z,13.03
2024-04-22T00:45:59.822Z,12.97
2024-04-22T00:48:28.555Z,11.90
2024-04-22T00:50:57.018Z,15.53
2024-04-22T00:53:24.986Z,14.57
2024-04-22T00:55:53.602Z,15.73
2024-04-22T00:58:22.071Z,13.20
2024-04-22T01:00:50.303Z,13.73
2024-04-22T01:03:18.090Z,10.90
2024-04-22T01:05:45.888Z,16.70
2024-04-22T01:08:13.652Z,11.57
2024-04-22T01:10:41.771Z,13.40
2024-04-22T01:13:09.743Z,15.50
2024-04-22T01:15:37.360Z,12.67
2024-04-22T01:18:05.147Z,13.00
2024-04-22T01:20:32.861Z,15.77
2024-04-22T01:23:00.521Z,15.47
2024-04-22T01:25:29.667Z,12.70
2024-04-22T01:27:57.290Z,13.57
2024-04-22T01:30:25.097Z,14.83
2024-04-22T01:32:52.853Z,15.50
2024-04-22T01:35:20.547Z,14.63
2024-04-22T01:37:48.271Z,14.47
2024-04-22T01:40:17.200Z,17.43
2024-04-22T01:42:44.897Z,14.30
2024-04-22T01:45:12.757Z,14.83
2024-04-22T01:47:40.991Z,17.33
2024-04-22T01:50:08.979Z,14.40
2024-04-22T01:52:36.681Z,14.33
2024-04-22T01:55:05.524Z,13.30
2024-04-22T01:57:34.278Z,19.07
2024-04-22T02:00:03.687Z,16.07
2024-04-22T02:02:39.385Z,11.90
2024-04-22T02:05:07.169Z,12.57
2024-04-22T02:07:34.891Z,16.37
2024-04-22T02:10:12.359Z,13.47
2024-04-22T02:12:45.371Z,13.10
2024-04-22T02:15:14.243Z,14.13
2024-04-22T02:17:42.137Z,12.73
2024-04-22T02:20:10.096Z,13.63
2024-04-22T02:22:37.845Z,15.93
2024-04-22T02:25:05.885Z,12.17
2024-04-22T02:27:33.614Z,14.30
2024-04-22T02:30:01.336Z,12.83
2024-04-22T02:32:32.003Z,12.37
2024-04-22T02:34:59.678Z,12.67
2024-04-22T02:37:27.446Z,13.73
2024-04-22T02:39:55.123Z,15.03
2024-04-22T02:42:22.861Z,17.43
2024-04-22T02:44:50.708Z,13.30
2024-04-22T02:47:18.385Z,13.90
2024-04-22T02:49:46.192Z,13.70
2024-04-22T02:52:13.800Z,19.03
2024-04-22T02:54:41.531Z,13.40
2024-04-22T02:57:09.331Z,15.83
2024-04-22T02:59:36.985Z,16.67
2024-04-22T03:02:04.687Z,14.80
2024-04-22T03:04:32.585Z,15.80
2024-04-22T03:07:02.395Z,17.37
2024-04-22T03:09:34.565Z,14.37
2024-04-22T03:12:03.193Z,13.27
2024-04-22T03:14:30.906Z,13.40
2024-04-22T03:16:58.806Z,12.53
2024-04-22T03:19:26.821Z,13.70
2024-04-22T03:21:54.615Z,13.83
2024-04-22T03:24:22.290Z,16.10
2024-04-22T03:26:49.940Z,12.10
2024-04-22T03:29:18.216Z,15.63
2024-04-22T03:31:45.976Z,14.63
2024-04-22T03:34:13.808Z,14.17
2024-04-22T03:36:42.081Z,13.50
2024-04-22T03:39:09.828Z,14.07
2024-04-22T03:41:37.560Z,13.97
2024-04-22T03:44:05.184Z,15.93
2024-04-22T03:46:51.726Z,15.00
2024-04-22T03:49:38.211Z,14.90
2024-04-22T03:52:06.258Z,14.20
2024-04-22T03:54:34.190Z,19.63
2024-04-22T03:57:01.851Z,14.30
2024-04-22T03:59:29.615Z,15.07
2024-04-22T04:01:57.312Z,13.67
2024-04-22T04:04:25.190Z,16.17
2024-04-22T04:06:52.955Z,12.17
2024-04-22T04:09:21.788Z,12.47
2024-04-22T04:11:50.213Z,12.47
2024-04-22T04:14:17.823Z,12.10
2024-04-22T04:16:45.666Z,12.90
2024-04-22T04:19:13.566Z,13.50
2024-04-22T04:21:41.365Z,14.90
2024-04-22T04:24:09.443Z,13.43
2024-04-22T04:26:39.486Z,13.00
2024-04-22T04:29:07.397Z,12.47
2024-04-22T04:31:35.295Z,14.30
2024-04-22T04:34:03.077Z,14.77
2024-04-22T04:36:30.712Z,12.90
2024-04-22T04:38:58.444Z,12.40
2024-04-22T04:41:26.121Z,12.70
2024-04-22T04:43:54.038Z,12.63
2024-04-22T04:46:21.668Z,12.50
2024-04-22T04:48:51.349Z,12.90
2024-04-22T04:51:20.423Z,13.67
2024-04-22T04:53:48.105Z,11.77
2024-04-22T04:56:15.953Z,13.40
2024-04-22T04:58:43.591Z,16.37
2024-04-22T05:01:11.526Z,13.37
2024-04-22T05:03:39.637Z,13.80
2024-04-22T05:06:07.299Z,15.37
2024-04-22T05:08:35.020Z,13.63
2024-04-22T05:11:06.066Z,15.33
2024-04-22T05:13:33.790Z,17.53
2024-04-22T05:16:01.471Z,16.47
2024-04-22T05:18:29.113Z,16.77
2024-04-22T05:20:56.747Z,18.07
2024-04-22T05:23:24.456Z,16.90
2024-04-22T05:25:52.030Z,16.03
2024-04-22T05:28:20.267Z,21.30
2024-04-22T05:30:48.063Z,21.03
2024-04-22T05:33:34.533Z,19.33
2024-04-22T05:36:13.392Z,17.03
2024-04-22T05:38:41.494Z,20.60
2024-04-22T05:41:10.477Z,20.57
2024-04-22T05:43:38.353Z,18.97
2024-04-22T05:46:10.080Z,20.30
2024-04-22T05:48:38.195Z,21.77
2024-04-22T05:51:06.143Z,25.63
2024-04-22T05:53:33.935Z,19.80
2024-04-22T05:56:01.643Z,18.47
2024-04-22T05:58:29.357Z,18.00
2024-04-22T06:00:57.166Z,21.10
2024-04-22T06:03:25.391Z,17.57
2024-04-22T06:05:52.994Z,21.43
2024-04-22T06:08:21.076Z,19.43
2024-04-22T06:10:48.866Z,17.93
2024-04-22T06:13:16.647Z,17.17
2024-04-22T06:15:44.339Z,19.27
2024-04-22T06:18:12.028Z,17.63
2024-04-22T06:20:39.805Z,19.13
2024-04-22T06:23:07.475Z,16.50
2024-04-22T06:25:35.301Z,15.93
2024-04-22T06:28:02.951Z,16.87
2024-04-22T06:30:30.631Z,19.07
2024-04-22T06:32:58.271Z,18.67
2024-04-22T06:35:26.022Z,18.43
2024-04-22T06:37:53.710Z,18.17
2024-04-22T06:40:22.796Z,17.87
2024-04-22T06:42:50.506Z,15.33
2024-04-22T06:45:18.167Z,20.17
2024-04-22T06:47:45.888Z,15.63
2024-04-22T06:50:15.088Z,18.30
2024-04-22T06:52:43.208Z,15.33
2024-04-22T06:55:10.984Z,16.50
2024-04-22T06:57:38.665Z,17.73
2024-04-22T07:00:06.660Z,19.23
2024-04-22T07:02:35.124Z,19.47
2024-04-22T07:05:03.172Z,19.07
2024-04-22T07:07:30.909Z,17.83
2024-04-22T07:09:58.603Z,20.50
2024-04-22T07:12:26.247Z,18.53
2024-04-22T07:14:53.958Z,17.37
2024-04-22T07:17:22.218Z,18.87
2024-04-22T07:19:54.987Z,19.03
2024-04-22T07:22:24.054Z,21.87
2024-04-22T07:25:01.294Z,23.97
2024-04-22T07:27:31.778Z,23.90
2024-04-22T07:30:00.874Z,20.10
2024-04-22T07:32:29.281Z,24.00
2024-04-22T07:34:57.282Z,25.50
2024-04-22T07:37:30.919Z,24.20
2024-04-22T07:40:02.685Z,23.33
2024-04-22T07:42:30.280Z,21.10
2024-04-22T07:44:58.309Z,24.73
2024-04-22T07:47:26.076Z,23.50
2024-04-22T07:49:53.839Z,23.40
2024-04-22T07:52:21.691Z,22.33
2024-04-22T07:54:49.499Z,23.20
2024-04-22T07:57:17.989Z,20.70
2024-04-22T07:59:46.064Z,19.47
2024-04-22T08:02:14.261Z,19.57
2024-04-22T08:04:42.922Z,18.90
2024-04-22T08:07:14.185Z,20.07
2024-04-22T08:09:42.430Z,17.83
2024-04-22T08:12:11.488Z,14.37
2024-04-22T08:14:39.129Z,17.70
2024-04-22T08:17:07.084Z,19.23
2024-04-22T08:19:35.173Z,16.17
2024-04-22T08:22:02.996Z,14.03
2024-04-22T08:24:30.856Z,20.20
2024-04-22T08:26:58.829Z,16.03
2024-04-22T08:29:26.635Z,18.83
2024-04-22T08:31:54.329Z,12.30
2024-04-22T08:34:21.965Z,14.87
2024-04-22T08:36:49.579Z,17.23
2024-04-22T08:39:17.336Z,15.53
2024-04-22T08:41:45.123Z,11.60
2024-04-22T08:44:13.293Z,10.13
2024-04-22T08:46:40.996Z,10.53
2024-04-22T08:49:09.421Z,9.43
2024-04-22T08:51:38.857Z,9.98
2024-04-22T08:54:06.709Z,9.73
2024-04-22T08:56:34.429Z,11.65
2024-04-22T08:59:02.101Z,9.00
2024-04-22T09:01:30.576Z,10.68
2024-04-22T09:03:59.550Z,9.45
2024-04-22T09:06:27.289Z,10.02
2024-04-22T09:08:55.673Z,10.02
2024-04-22T09:11:47.208Z,11.23
2024-04-22T09:14:11.508Z,10.82
2024-04-22T09:16:39.773Z,14.75
2024-04-22T09:19:07.591Z,12.40
2024-04-22T09:21:38.802Z,16.05
2024-04-22T09:24:11.053Z,13.70
2024-04-22T09:26:39.236Z,12.98
2024-04-22T09:29:09.134Z,10.55
2024-04-22T09:31:40.784Z,12.55
2024-04-22T09:34:12.117Z,15.52
2024-04-22T09:36:41.094Z,19.00
2024-04-22T09:39:13.151Z,18.58
2024-04-22T09:41:43.332Z,18.48
2024-04-22T09:44:14.105Z,14.25
2024-04-22T09:46:46.279Z,16.00
2024-04-22T09:49:16.261Z,16.13
2024-04-22T09:51:45.316Z,14.27
2024-04-22T09:54:13.048Z,16.38
2024-04-22T09:56:40.996Z,12.88
2024-04-22T09:59:09.997Z,15.15
2024-04-22T10:01:37.920Z,10.43
2024-04-22T10:04:06.008Z,17.13
2024-04-22T10:06:34.862Z,11.05
2024-04-22T10:09:02.914Z,10.45
2024-04-22T10:11:34.918Z,13.00
2024-04-22T10:14:18.045Z,11.98
2024-04-22T10:16:57.501Z,11.57
2024-04-22T10:19:29.505Z,10.20
2024-04-22T10:22:04.779Z,10.18
2024-04-22T10:24:39.544Z,10.63
2024-04-22T10:27:12.819Z,11.57
2024-04-22T10:29:43.245Z,10.68
2024-04-22T10:32:11.278Z,10.93
2024-04-22T10:34:45.856Z,10.77
2024-04-22T10:37:14.403Z,8.07
2024-04-22T10:39:42.761Z,7.72
2024-04-22T10:42:10.970Z,11.90
2024-04-22T10:44:43.503Z,10.10
2024-04-22T10:47:11.752Z,10.70
2024-04-22T10:49:39.588Z,11.43
2024-04-22T10:52:08.696Z,11.45
2024-04-22T10:54:36.722Z,9.40
2024-04-22T10:57:06.154Z,10.00
2024-04-22T10:59:33.983Z,10.63
2024-04-22T11:02:02.039Z,10.40
2024-04-22T11:04:30.540Z,11.75
2024-04-22T11:06:58.234Z,9.95
2024-04-22T11:09:27.619Z,9.80
2024-04-22T11:11:55.679Z,10.65
2024-04-22T11:14:23.662Z,9.52
2024-04-22T11:17:00.835Z,9.60
2024-04-22T11:19:29.145Z,10.55
2024-04-22T11:21:57.196Z,8.75
2024-04-22T11:24:25.105Z,10.73
2024-04-22T11:26:52.847Z,8.95
2024-04-22T11:29:20.975Z,11.63
2024-04-22T11:31:49.039Z,9.73
2024-04-22T11:34:17.569Z,13.23
2024-04-22T11:36:45.599Z,9.57
2024-04-22T11:39:14.235Z,7.13
2024-04-22T11:41:41.902Z,9.45
2024-04-22T11:44:09.553Z,9.18
2024-04-22T11:46:37.647Z,7.03
2024-04-22T11:49:05.538Z,10.90
2024-04-22T11:51:33.278Z,7.40
2024-04-22T11:54:01.368Z,11.00
2024-04-22T11:56:36.975Z,8.32
2024-04-22T11:59:08.231Z,8.27
2024-04-22T12:01:36.281Z,6.60
2024-04-22T12:04:04.051Z,9.23
2024-04-22T12:06:32.092Z,6.55
2024-04-22T12:09:02.036Z,9.43
2024-04-22T12:11:32.278Z,7.70
2024-04-22T12:14:00.091Z,5.72
2024-04-22T12:16:28.100Z,6.93
2024-04-22T12:18:55.801Z,8.45
2024-04-22T12:21:23.543Z,8.02
2024-04-22T12:23:51.119Z,7.70
2024-04-22T12:26:18.972Z,7.10
2024-04-22T12:28:46.739Z,8.73
2024-04-22T12:31:14.626Z,8.60
2024-04-22T12:33:51.268Z,7.28
2024-04-22T12:36:26.222Z,8.70
2024-04-22T12:38:53.988Z,8.73
2024-04-22T12:41:21.569Z,10.30
2024-04-22T12:43:49.229Z,8.88
2024-04-22T12:46:16.978Z,10.68
2024-04-22T12:49:03.661Z,9.73
2024-04-22T12:51:31.497Z,9.07
2024-04-22T12:53:59.190Z,12.75
2024-04-22T12:56:26.891Z,8.55
2024-04-22T12:58:54.822Z,10.43
2024-04-22T13:01:22.680Z,9.45
2024-04-22T13:03:50.513Z,9.68
2024-04-22T13:06:18.344Z,11.82
2024-04-22T13:08:45.996Z,7.82
2024-04-22T13:11:13.752Z,8.85
2024-04-22T13:13:41.578Z,9.13
2024-04-22T13:16:09.434Z,10.02
2024-04-22T13:18:37.159Z,8.57
2024-04-22T13:21:04.967Z,11.93
2024-04-22T13:23:32.713Z,8.65
2024-04-22T13:26:00.616Z,8.88
2024-04-22T13:28:28.668Z,9.93
2024-04-22T13:30:57.708Z,10.05
2024-04-22T13:33:25.901Z,8.23
2024-04-22T13:35:53.787Z,8.82
2024-04-22T13:38:21.415Z,8.73
2024-04-22T13:40:49.226Z,7.97
2024-04-22T13:43:16.983Z,7.90
2024-04-22T13:45:44.690Z,7.38
2024-04-22T13:48:14.078Z,8.45
2024-04-22T13:50:41.801Z,8.07
2024-04-22T13:53:20.013Z,7.40
2024-04-22T13:55:55.589Z,8.77
2024-04-22T13:58:23.264Z,8.10
2024-04-22T14:00:51.191Z,8.18
2024-04-22T14:03:18.969Z,9.48
2024-04-22T14:05:46.576Z,7.80
2024-04-22T14:08:14.231Z,12.80
2024-04-22T14:10:42.359Z,9.25
2024-04-22T14:13:10.180Z,9.55
2024-04-22T14:15:45.276Z,8.75
2024-04-22T14:18:15.879Z,9.77
2024-04-22T14:20:44.245Z,10.38
2024-04-22T14:23:11.895Z,8.73
2024-04-22T14:25:40.638Z,14.48
2024-04-22T14:28:08.391Z,9.88
2024-04-22T14:30:36.308Z,8.77
2024-04-22T14:33:04.330Z,9.68
2024-04-22T14:35:32.438Z,10.27
2024-04-22T14:38:02.018Z,12.45
2024-04-22T14:40:30.250Z,10.93
2024-04-22T14:42:58.101Z,9.45
2024-04-22T14:45:28.180Z,15.45
2024-04-22T14:47:56.061Z,15.93
2024-04-22T14:50:24.670Z,9.25
2024-04-22T14:52:52.557Z,9.98
2024-04-22T14:55:21.405Z,12.20
2024-04-22T14:57:49.119Z,10.68
2024-04-22T15:00:17.095Z,13.43
2024-04-22T15:02:44.876Z,12.43
2024-04-22T15:05:12.576Z,11.77
2024-04-22T15:07:41.005Z,10.50
2024-04-22T15:10:09.174Z,12.93
2024-04-22T15:12:37.480Z,10.32
2024-04-22T15:15:05.625Z,10.80
2024-04-22T15:17:33.664Z,14.73
2024-04-22T15:20:02.964Z,10.88
2024-04-22T15:22:30.799Z,9.35
2024-04-22T15:24:58.446Z,10.07
2024-04-22T15:27:26.169Z,11.25
2024-04-22T15:29:54.006Z,11.45
2024-04-22T15:32:21.803Z,10.95
2024-04-22T15:34:49.623Z,10.85
2024-04-22T15:37:19.836Z,12.65
2024-04-22T15:39:47.940Z,9.80
2024-04-22T15:42:15.679Z,10.55
2024-04-22T15:44:43.443Z,11.70
2024-04-22T15:47:11.150Z,12.27
2024-04-22T15:49:38.993Z,12.52
2024-04-22T15:52:07.431Z,10.07
2024-04-22T15:54:35.159Z,13.32
2024-04-22T15:57:03.070Z,10.57
2024-04-22T15:59:33.179Z,10.18
2024-04-22T16:02:00.912Z,9.48
2024-04-22T16:04:28.623Z,16.25
2024-04-22T16:06:56.220Z,12.75
2024-04-22T16:09:24.334Z,12.43
2024-04-22T16:11:52.557Z,10.05
2024-04-22T16:14:20.262Z,11.27
2024-04-22T16:16:47.942Z,10.10
2024-04-22T16:19:15.642Z,9.80
2024-04-22T16:21:43.441Z,10.13
2024-04-22T16:24:11.075Z,10.83
2024-04-22T16:26:38.718Z,9.63
2024-04-22T16:29:09.715Z,10.63
2024-04-22T16:31:37.562Z,11.50
2024-04-22T16:34:05.552Z,11.43
2024-04-22T16:36:33.592Z,9.20
2024-04-22T16:39:02.072Z,11.43
2024-04-22T16:41:30.239Z,10.38
2024-04-22T16:43:58.400Z,9.82
2024-04-22T16:46:27.700Z,11.05
2024-04-22T16:48:58.985Z,14.75
2024-04-22T16:51:26.742Z,9.50
2024-04-22T16:53:54.323Z,12.55
2024-04-22T16:56:22.044Z,11.20
2024-04-22T16:58:49.764Z,12.80
2024-04-22T17:01:17.747Z,8.93
2024-04-22T17:03:45.489Z,10.23
2024-04-22T17:06:13.220Z,11.33
2024-04-22T17:08:40.931Z,12.35
